Main page
METAR-TAF:

METAR-TAF

Airports :

Valladolid, Spain

Valladolid Airport

latitude: 41-43N, longitude: 004-51W, elevation: 849 m

Current weather observation

The report was made 19 minutes ago, at 16:30 UTC
Wind 10 kt from the West, varying between South/Southwest and North/Northwest
Temperature 27°C
Humidity 28%
Pressure 1017 hPa
Visibility 10 km or more
no clouds below 1500 m and no cumulonimbus

METAR: LEVD 221630Z 26010KT 200V330 CAVOK 27/07 Q1017

Time: 18:49 (16:49 UTC)

Forecast

The report was made 5 hours and 49 minutes ago, at 11:00 UTC
Forecast valid from 22 at 12 UTC to 23 at 12 UTC
Wind 10 kt from the West
Visibility 10 km or more
no clouds below 1500 m and no cumulonimbus
Becoming
from 22 at 21 UTC to 22 at 23 UTC
Wind 13 kt from the North/Northeast
Becoming
from 23 at 02 UTC to 23 at 04 UTC
Wind 5 kt from variable directions

TAF: LEVD 221100Z 2212/2312 27010KT CAVOK TX29/2216Z TN12/2305Z BECMG 2221/2223 02013KT BECMG 2302/2304 VRB05KT

Weather observations and forecasts of more than 4000 airports (METAR and TAF reports).

The available stations are represented by yellow and red dots on the map.

Hover mouse over dot to see the name of the station.

Then click to see weather observations and forecasts.

To change the map : click on the green buttons with a black cross to zoom in, on the green button with a dash to zoom out, or on the green arrows for adjacent maps.


METAR-TAF: